createdAt,value
2018-09-15T00:00:33.886Z,97.90
2018-09-15T00:03:02.778Z,97.90
2018-09-15T00:05:31.742Z,98.20
2018-09-15T00:08:00.630Z,98.00
2018-09-15T00:10:29.531Z,98.20
2018-09-15T00:12:58.447Z,97.90
2018-09-15T00:15:27.366Z,98.20
2018-09-15T00:17:56.547Z,98.30
2018-09-15T00:20:25.479Z,98.30
2018-09-15T00:22:54.427Z,98.30
2018-09-15T00:25:23.303Z,98.10
2018-09-15T00:27:52.203Z,98.20
2018-09-15T00:30:21.131Z,98.10
2018-09-15T00:32:50.116Z,97.90
2018-09-15T00:35:19.048Z,97.50
2018-09-15T00:37:47.990Z,96.90
2018-09-15T00:40:16.936Z,96.70
2018-09-15T00:42:45.851Z,96.70
2018-09-15T00:45:15.190Z,96.50
2018-09-15T00:47:44.084Z,96.10
2018-09-15T00:50:12.973Z,96.00
2018-09-15T00:52:42.078Z,95.70
2018-09-15T00:55:10.978Z,95.90
2018-09-15T00:57:39.875Z,96.30
2018-09-15T01:00:09.190Z,96.60
2018-09-15T01:02:38.143Z,96.00
2018-09-15T01:05:07.130Z,96.30
2018-09-15T01:07:36.069Z,96.50
2018-09-15T01:10:05.869Z,95.70
2018-09-15T01:12:34.815Z,94.80
2018-09-15T01:15:03.775Z,94.60
2018-09-15T01:17:32.662Z,96.00
2018-09-15T01:20:01.593Z,96.60
2018-09-15T01:22:30.469Z,96.60
2018-09-15T01:24:59.338Z,96.60
2018-09-15T01:27:28.222Z,96.60
2018-09-15T01:29:57.097Z,96.60
2018-09-15T01:32:27.327Z,96.60
2018-09-15T01:34:56.488Z,96.70
2018-09-15T01:37:25.691Z,96.60
2018-09-15T01:39:54.626Z,96.60
2018-09-15T01:42:23.746Z,96.60
2018-09-15T01:44:52.663Z,96.90
2018-09-15T01:47:21.630Z,97.30
2018-09-15T01:49:51.011Z,97.30
2018-09-15T01:52:19.934Z,97.10
2018-09-15T01:54:48.822Z,96.80
2018-09-15T01:57:17.746Z,97.00
2018-09-15T01:59:46.647Z,97.30
2018-09-15T02:02:15.578Z,97.70
2018-09-15T02:04:44.466Z,97.20
2018-09-15T02:07:19.813Z,97.00
2018-09-15T02:09:48.697Z,97.10
2018-09-15T02:12:17.606Z,97.30
2018-09-15T02:14:46.526Z,97.60
2018-09-15T02:17:15.443Z,97.70
2018-09-15T02:19:44.421Z,97.60
2018-09-15T02:22:13.326Z,98.00
2018-09-15T02:24:42.215Z,98.10
2018-09-15T02:27:11.114Z,98.20
2018-09-15T02:29:40.018Z,98.10
2018-09-15T02:32:08.935Z,97.30
2018-09-15T02:34:37.861Z,96.70
2018-09-15T02:37:06.803Z,96.60
2018-09-15T02:39:35.688Z,96.60
2018-09-15T02:42:04.590Z,96.90
2018-09-15T02:44:33.462Z,97.10
2018-09-15T02:47:02.354Z,97.00
2018-09-15T02:49:31.247Z,97.20
2018-09-15T02:52:00.134Z,96.80
2018-09-15T02:54:29.047Z,97.00
2018-09-15T02:56:57.946Z,97.20
2018-09-15T02:59:27.030Z,97.80
2018-09-15T03:01:55.942Z,98.10
2018-09-15T03:04:24.815Z,98.20
2018-09-15T03:06:53.723Z,98.40
2018-09-15T03:09:22.611Z,98.60
2018-09-15T03:11:51.524Z,98.40
2018-09-15T03:14:20.417Z,98.70
2018-09-15T03:16:49.326Z,98.80
2018-09-15T03:19:18.274Z,98.80
2018-09-15T03:21:47.198Z,98.40
2018-09-15T03:24:16.093Z,97.90
2018-09-15T03:26:45.005Z,99.10
2018-09-15T03:29:13.895Z,99.00
2018-09-15T03:31:42.785Z,99.30
2018-09-15T03:34:11.662Z,99.10
2018-09-15T03:36:40.577Z,99.20
2018-09-15T03:39:10.614Z,99.30
2018-09-15T03:41:39.536Z,99.10
2018-09-15T03:44:08.419Z,98.60
2018-09-15T03:46:37.339Z,98.60
2018-09-15T03:49:06.471Z,98.60
2018-09-15T03:51:35.421Z,98.40
2018-09-15T03:54:04.294Z,98.20
2018-09-15T03:56:33.191Z,98.70
2018-09-15T03:59:02.077Z,98.50
2018-09-15T04:01:30.980Z,98.90
2018-09-15T04:03:59.859Z,99.00
2018-09-15T04:06:28.866Z,99.20
2018-09-15T04:08:57.741Z,99.40
2018-09-15T04:11:26.635Z,99.40
2018-09-15T04:13:55.501Z,99.30
2018-09-15T04:16:24.406Z,98.90
2018-09-15T04:18:53.310Z,98.90
2018-09-15T04:21:22.195Z,98.80
2018-09-15T04:23:51.101Z,99.20
2018-09-15T04:26:20.018Z,99.10
2018-09-15T04:28:48.943Z,99.90
2018-09-15T04:31:17.914Z,99.90
2018-09-15T04:33:46.937Z,99.90
2018-09-15T04:36:15.847Z,99.50
2018-09-15T04:38:44.742Z,99.80
2018-09-15T04:41:13.650Z,99.60
2018-09-15T04:43:42.529Z,99.90
2018-09-15T04:46:11.411Z,99.90
2018-09-15T04:48:40.382Z,99.90
2018-09-15T04:51:09.262Z,99.90
2018-09-15T04:53:38.218Z,99.90
2018-09-15T04:56:07.132Z,99.90
2018-09-15T04:58:36.023Z,99.90
2018-09-15T05:01:04.960Z,99.90
2018-09-15T05:03:33.902Z,99.90
2018-09-15T05:06:02.811Z,99.90
2018-09-15T05:08:31.682Z,99.90
2018-09-15T05:11:00.751Z,99.90
2018-09-15T05:13:29.642Z,99.90
2018-09-15T05:15:58.538Z,99.90
2018-09-15T05:18:27.410Z,99.90
2018-09-15T05:20:56.306Z,99.40
2018-09-15T05:23:25.210Z,98.20
2018-09-15T05:25:54.086Z,98.30
2018-09-15T05:28:22.998Z,97.50
2018-09-15T05:30:51.908Z,97.60
2018-09-15T05:33:20.811Z,97.60
2018-09-15T05:35:49.695Z,98.00
2018-09-15T05:38:18.623Z,97.30
2018-09-15T05:40:47.641Z,94.80
2018-09-15T05:43:16.627Z,93.60
2018-09-15T05:45:45.526Z,93.30
2018-09-15T05:48:15.269Z,92.70
2018-09-15T05:50:44.144Z,92.20
2018-09-15T05:53:13.014Z,91.80
2018-09-15T05:55:41.875Z,89.90
2018-09-15T05:58:10.867Z,91.30
2018-09-15T06:00:39.737Z,90.30
2018-09-15T06:03:08.627Z,88.10
2018-09-15T06:05:37.505Z,87.00
2018-09-15T06:08:06.582Z,87.80
2018-09-15T06:10:35.504Z,85.60
2018-09-15T06:13:04.357Z,80.30
2018-09-15T06:15:33.278Z,80.00
2018-09-15T06:18:02.161Z,74.70
2018-09-15T06:20:31.045Z,73.80
2018-09-15T06:22:59.940Z,78.00
2018-09-15T06:25:28.826Z,70.60
2018-09-15T06:27:57.794Z,69.10
2018-09-15T06:30:26.682Z,68.80
2018-09-15T06:32:55.571Z,67.40
2018-09-15T06:35:24.679Z,66.30
2018-09-15T06:37:53.608Z,67.00
2018-09-15T06:40:22.518Z,63.80
2018-09-15T06:42:51.466Z,61.60
2018-09-15T06:45:20.403Z,62.00
2018-09-15T06:47:49.266Z,57.80
2018-09-15T06:50:18.174Z,56.80
2018-09-15T06:52:47.087Z,57.00
2018-09-15T06:55:16.008Z,56.30
2018-09-15T06:57:44.946Z,54.10
2018-09-15T07:00:13.774Z,55.70
2018-09-15T07:02:42.690Z,51.20
2018-09-15T07:05:11.554Z,53.00
2018-09-15T07:07:40.458Z,51.80
2018-09-15T07:10:09.602Z,51.50
2018-09-15T07:12:38.487Z,49.00
2018-09-15T07:15:07.392Z,49.70
2018-09-15T07:17:36.266Z,48.40
2018-09-15T07:20:05.936Z,47.80
2018-09-15T07:22:34.955Z,46.90
2018-09-15T07:25:03.933Z,45.80
2018-09-15T07:27:32.823Z,43.60
2018-09-15T07:30:01.702Z,42.50
2018-09-15T07:32:30.611Z,42.40
2018-09-15T07:34:59.662Z,44.20
2018-09-15T07:37:28.578Z,43.90
2018-09-15T07:39:57.434Z,41.60
2018-09-15T07:42:26.314Z,42.80
2018-09-15T07:44:55.191Z,40.00
2018-09-15T07:47:24.068Z,36.90
2018-09-15T07:49:53.030Z,37.00
2018-09-15T07:52:22.314Z,37.10
2018-09-15T07:54:51.239Z,35.00
2018-09-15T07:57:20.229Z,34.80
2018-09-15T07:59:49.082Z,32.80
2018-09-15T08:02:19.158Z,33.90
2018-09-15T08:04:48.665Z,35.60
2018-09-15T08:07:17.795Z,33.10
2018-09-15T08:09:47.281Z,30.70
2018-09-15T08:12:17.134Z,29.40
2018-09-15T08:14:46.034Z,29.70
2018-09-15T08:17:14.969Z,28.60
2018-09-15T08:19:43.949Z,26.70
2018-09-15T08:22:12.837Z,27.30
2018-09-15T08:24:41.709Z,26.20
2018-09-15T08:27:10.593Z,26.10
2018-09-15T08:29:39.482Z,26.60
2018-09-15T08:32:08.460Z,24.80
2018-09-15T08:34:37.275Z,25.50
2018-09-15T08:37:06.391Z,25.70
2018-09-15T08:39:35.262Z,25.10
2018-09-15T08:42:04.162Z,24.70
2018-09-15T08:44:39.855Z,22.70
2018-09-15T08:47:08.783Z,21.10
2018-09-15T08:49:37.683Z,22.10
2018-09-15T08:52:06.602Z,22.00
2018-09-15T08:54:35.514Z,22.20
2018-09-15T08:57:04.438Z,20.80
2018-09-15T08:59:33.322Z,21.60
2018-09-15T09:02:02.210Z,20.80
2018-09-15T09:04:31.075Z,21.30
2018-09-15T09:06:59.959Z,21.10
2018-09-15T09:09:28.831Z,21.40
2018-09-15T09:11:57.715Z,23.00
2018-09-15T09:14:26.587Z,21.50
2018-09-15T09:16:55.470Z,20.70
2018-09-15T09:19:24.327Z,21.10
2018-09-15T09:21:53.228Z,20.90
2018-09-15T09:24:22.099Z,20.40
2018-09-15T09:26:51.098Z,20.80
2018-09-15T09:29:19.904Z,19.90
2018-09-15T09:31:48.878Z,19.70
2018-09-15T09:34:17.781Z,19.40
2018-09-15T09:36:46.718Z,19.50
2018-09-15T09:39:15.640Z,19.50
2018-09-15T09:41:44.554Z,19.50
2018-09-15T09:44:13.418Z,18.90
2018-09-15T09:46:42.299Z,19.80
2018-09-15T09:49:11.218Z,18.90
2018-09-15T09:51:40.094Z,19.10
2018-09-15T09:54:08.986Z,19.90
2018-09-15T09:56:37.918Z,19.50
2018-09-15T09:59:06.870Z,18.60
2018-09-15T10:01:41.097Z,18.30
2018-09-15T10:04:09.994Z,18.90
2018-09-15T10:06:38.878Z,17.80
2018-09-15T10:09:09.502Z,17.70
2018-09-15T10:11:39.450Z,17.50
2018-09-15T10:14:08.354Z,18.50
2018-09-15T10:16:37.294Z,18.60
2018-09-15T10:19:07.018Z,18.40
2018-09-15T10:21:35.940Z,18.90
2018-09-15T10:24:04.790Z,17.50
2018-09-15T10:26:33.685Z,18.40
2018-09-15T10:29:02.586Z,18.00
2018-09-15T10:31:31.478Z,17.30
2018-09-15T10:34:00.354Z,16.80
2018-09-15T10:36:29.258Z,16.90
2018-09-15T10:38:58.154Z,16.80
2018-09-15T10:41:27.148Z,15.90
2018-09-15T10:43:56.026Z,16.80
2018-09-15T10:46:24.926Z,17.00
2018-09-15T10:48:53.810Z,16.70
2018-09-15T10:51:22.725Z,16.60
2018-09-15T10:53:51.654Z,17.00
2018-09-15T10:56:20.566Z,16.40
2018-09-15T10:58:49.513Z,17.00
2018-09-15T11:01:18.436Z,15.50
2018-09-15T11:03:47.378Z,16.50
2018-09-15T11:06:16.347Z,16.60
2018-09-15T11:08:45.235Z,16.20
2018-09-15T11:11:14.123Z,16.60
2018-09-15T11:13:43.042Z,16.80
2018-09-15T11:16:11.894Z,16.40
2018-09-15T11:18:40.898Z,18.00
2018-09-15T11:21:09.855Z,17.60
2018-09-15T11:23:38.754Z,18.30
2018-09-15T11:26:07.627Z,18.10
2018-09-15T11:28:36.538Z,18.10
2018-09-15T11:31:05.458Z,18.10
2018-09-15T11:33:36.135Z,19.20
2018-09-15T11:36:05.011Z,18.00
2018-09-15T11:38:34.021Z,16.80
2018-09-15T11:41:03.007Z,16.60
2018-09-15T11:43:31.889Z,15.00
2018-09-15T11:46:00.752Z,13.70
2018-09-15T11:48:29.690Z,14.30
2018-09-15T11:50:58.639Z,14.20
2018-09-15T11:53:27.594Z,14.50
2018-09-15T11:55:56.485Z,14.10
2018-09-15T11:58:25.430Z,13.10
2018-09-15T12:00:55.989Z,13.10
2018-09-15T12:03:24.885Z,12.90
2018-09-15T12:05:53.844Z,13.00
2018-09-15T12:08:22.806Z,12.40
2018-09-15T12:10:51.709Z,12.30
2018-09-15T12:13:20.817Z,12.70
2018-09-15T12:15:50.191Z,12.10
2018-09-15T12:18:19.206Z,12.40
2018-09-15T12:20:48.175Z,11.30
2018-09-15T12:23:17.117Z,12.40
2018-09-15T12:25:46.043Z,12.70
2018-09-15T12:28:14.942Z,13.70
2018-09-15T12:30:43.865Z,13.40
2018-09-15T12:33:12.758Z,13.90
2018-09-15T12:35:41.830Z,14.00
2018-09-15T12:38:10.821Z,13.70
2018-09-15T12:40:39.826Z,13.30
2018-09-15T12:43:08.734Z,12.90
2018-09-15T12:45:37.609Z,13.00
2018-09-15T12:48:06.502Z,13.50
2018-09-15T12:50:35.410Z,12.50
2018-09-15T12:53:04.303Z,12.10
2018-09-15T12:55:33.182Z,11.90
2018-09-15T12:58:02.207Z,12.80
2018-09-15T13:00:31.081Z,11.80
2018-09-15T13:02:59.972Z,11.80
2018-09-15T13:05:28.835Z,12.40
2018-09-15T13:07:58.771Z,13.30
2018-09-15T13:10:27.638Z,14.20
2018-09-15T13:12:56.582Z,13.40
2018-09-15T13:15:25.534Z,13.40
2018-09-15T13:17:54.355Z,12.60
2018-09-15T13:20:23.231Z,12.60
2018-09-15T13:22:52.130Z,13.60
2018-09-15T13:25:21.042Z,13.40
2018-09-15T13:27:49.939Z,14.40
2018-09-15T13:30:18.912Z,13.80
2018-09-15T13:32:47.927Z,14.00
2018-09-15T13:35:16.964Z,11.90
2018-09-15T13:37:45.925Z,10.90
2018-09-15T13:40:14.792Z,10.90
2018-09-15T13:42:43.664Z,10.90
2018-09-15T13:45:12.554Z,10.40
2018-09-15T13:47:41.446Z,11.00
2018-09-15T13:50:10.338Z,11.10
2018-09-15T13:52:39.217Z,12.30
2018-09-15T13:55:08.094Z,13.00
2018-09-15T13:57:36.982Z,13.70
2018-09-15T14:00:05.952Z,13.70
2018-09-15T14:02:39.061Z,13.70
2018-09-15T14:05:07.963Z,13.60
2018-09-15T14:07:36.869Z,13.80
2018-09-15T14:10:07.044Z,13.50
2018-09-15T14:12:34.951Z,13.50
2018-09-15T14:15:03.918Z,13.70
2018-09-15T14:17:33.030Z,13.70
2018-09-15T14:20:02.359Z,13.90
2018-09-15T14:22:31.454Z,14.30
2018-09-15T14:25:00.338Z,14.30
2018-09-15T14:27:29.197Z,13.90
2018-09-15T14:29:58.108Z,12.70
2018-09-15T14:32:26.966Z,12.60
2018-09-15T14:34:55.903Z,11.10
2018-09-15T14:37:24.710Z,11.70
2018-09-15T14:39:53.811Z,10.30
2018-09-15T14:42:22.714Z,10.10
2018-09-15T14:44:51.630Z,9.90
2018-09-15T14:47:20.557Z,10.50
2018-09-15T14:49:49.459Z,10.50
2018-09-15T14:52:18.398Z,10.20
2018-09-15T14:54:47.339Z,10.00
2018-09-15T14:57:16.291Z,10.40
2018-09-15T14:59:45.194Z,10.00
2018-09-15T15:02:14.055Z,9.70
2018-09-15T15:04:42.926Z,9.50
2018-09-15T15:07:11.799Z,9.40
2018-09-15T15:09:40.728Z,9.00
2018-09-15T15:12:09.722Z,9.90
2018-09-15T15:14:38.590Z,9.20
2018-09-15T15:17:07.469Z,8.80
2018-09-15T15:19:36.476Z,8.30
2018-09-15T15:22:05.331Z,8.50
2018-09-15T15:24:34.213Z,8.90
2018-09-15T15:27:03.082Z,8.80
2018-09-15T15:29:31.963Z,8.90
2018-09-15T15:32:00.834Z,8.80
2018-09-15T15:34:29.769Z,9.50
2018-09-15T15:36:58.578Z,9.30
2018-09-15T15:39:27.535Z,9.70
2018-09-15T15:41:56.402Z,10.00
2018-09-15T15:44:25.310Z,9.70
2018-09-15T15:46:54.175Z,10.30
2018-09-15T15:49:23.118Z,10.60
2018-09-15T15:51:52.054Z,10.80
2018-09-15T15:54:20.987Z,12.10
2018-09-15T15:56:49.904Z,13.40
2018-09-15T15:59:19.089Z,12.80
2018-09-15T16:01:48.015Z,13.30
2018-09-15T16:04:16.821Z,13.50
2018-09-15T16:06:45.706Z,13.50
2018-09-15T16:09:14.602Z,13.60
2018-09-15T16:11:43.487Z,14.30
2018-09-15T16:14:12.374Z,15.20
2018-09-15T16:16:41.647Z,14.80
2018-09-15T16:19:10.603Z,15.20
2018-09-15T16:21:39.490Z,15.50
2018-09-15T16:24:08.375Z,15.40
2018-09-15T16:26:37.238Z,15.20
2018-09-15T16:29:06.129Z,15.50
2018-09-15T16:31:35.002Z,15.30
2018-09-15T16:34:03.898Z,15.40
2018-09-15T16:36:32.765Z,15.90
2018-09-15T16:39:01.663Z,16.20
2018-09-15T16:41:30.611Z,16.20
2018-09-15T16:43:59.503Z,17.00
2018-09-15T16:46:28.382Z,17.10
2018-09-15T16:48:57.278Z,16.70
2018-09-15T16:51:26.166Z,17.00
2018-09-15T16:53:55.058Z,17.60
2018-09-15T16:56:23.938Z,17.90
2018-09-15T16:58:52.838Z,17.40
2018-09-15T17:01:21.911Z,17.70
2018-09-15T17:03:50.791Z,18.10
2018-09-15T17:06:19.686Z,18.30
2018-09-15T17:08:48.598Z,18.20
2018-09-15T17:11:17.527Z,18.40
2018-09-15T17:13:46.713Z,18.80
2018-09-15T17:16:15.620Z,19.40
2018-09-15T17:18:44.526Z,19.40
2018-09-15T17:21:13.426Z,19.30
2018-09-15T17:23:42.319Z,20.50
2018-09-15T17:26:11.306Z,20.50
2018-09-15T17:28:40.431Z,21.00
2018-09-15T17:31:09.336Z,21.30
2018-09-15T17:33:38.210Z,20.80
2018-09-15T17:36:07.121Z,21.40
2018-09-15T17:38:36.098Z,21.50
2018-09-15T17:41:05.020Z,21.20
2018-09-15T17:43:34.828Z,21.70
2018-09-15T17:46:03.786Z,21.40
2018-09-15T17:48:32.718Z,21.90
2018-09-15T17:51:01.759Z,21.60
2018-09-15T17:53:30.677Z,21.90
2018-09-15T17:55:59.554Z,22.80
2018-09-15T17:58:28.446Z,22.30
2018-09-15T18:00:57.339Z,22.50
2018-09-15T18:03:26.284Z,22.90
2018-09-15T18:05:55.118Z,22.90
2018-09-15T18:08:24.032Z,23.60
2018-09-15T18:10:52.907Z,24.10
2018-09-15T18:13:21.801Z,23.70
2018-09-15T18:15:50.687Z,24.10
2018-09-15T18:18:19.590Z,24.60
2018-09-15T18:20:48.503Z,24.40
2018-09-15T18:23:17.514Z,25.10
2018-09-15T18:25:46.442Z,25.10
2018-09-15T18:28:15.360Z,25.50
2018-09-15T18:30:44.262Z,25.40
2018-09-15T18:33:13.153Z,25.40
2018-09-15T18:35:42.162Z,25.40
2018-09-15T18:38:11.038Z,25.90
2018-09-15T18:40:39.982Z,26.20
2018-09-15T18:43:08.867Z,26.40
2018-09-15T18:45:37.758Z,26.80
2018-09-15T18:48:06.790Z,26.80
2018-09-15T18:50:35.834Z,27.20
2018-09-15T18:53:04.720Z,27.50
2018-09-15T18:55:33.634Z,27.90
2018-09-15T18:58:02.502Z,27.70
2018-09-15T19:00:31.466Z,28.50
2018-09-15T19:03:00.348Z,28.60
2018-09-15T19:05:29.234Z,29.20
2018-09-15T19:07:58.108Z,29.20
2018-09-15T19:10:26.986Z,29.40
2018-09-15T19:12:55.852Z,29.50
2018-09-15T19:15:24.742Z,29.50
2018-09-15T19:17:53.610Z,30.00
2018-09-15T19:20:22.510Z,30.10
2018-09-15T19:22:51.370Z,30.50
2018-09-15T19:25:20.290Z,32.20
2018-09-15T19:27:49.211Z,32.90
2018-09-15T19:30:18.121Z,33.00
2018-09-15T19:32:47.105Z,32.90
2018-09-15T19:35:15.922Z,32.80
2018-09-15T19:37:44.806Z,34.50
2018-09-15T19:40:13.700Z,33.60
2018-09-15T19:42:42.567Z,34.10
2018-09-15T19:45:11.443Z,35.00
2018-09-15T19:47:40.314Z,35.40
2018-09-15T19:50:09.206Z,36.80
2018-09-15T19:52:38.083Z,36.50
2018-09-15T19:55:07.249Z,37.90
2018-09-15T19:57:36.230Z,38.20
2018-09-15T20:00:05.262Z,39.10
2018-09-15T20:02:34.647Z,39.80
2018-09-15T20:05:03.615Z,39.00
2018-09-15T20:07:32.477Z,38.70
2018-09-15T20:10:01.422Z,39.80
2018-09-15T20:12:30.308Z,39.00
2018-09-15T20:14:59.199Z,38.90
2018-09-15T20:17:26.993Z,39.40
2018-09-15T20:19:54.799Z,39.80
2018-09-15T20:22:23.699Z,40.30
2018-09-15T20:24:52.623Z,40.50
2018-09-15T20:27:21.578Z,40.30
2018-09-15T20:29:50.457Z,41.00
2018-09-15T20:32:19.378Z,41.80
2018-09-15T20:34:48.266Z,41.10
2018-09-15T20:37:17.291Z,41.80
2018-09-15T20:39:46.446Z,41.40
2018-09-15T20:42:15.339Z,41.10
2018-09-15T20:44:44.202Z,41.50
2018-09-15T20:47:13.079Z,41.70
2018-09-15T20:49:42.054Z,42.40
2018-09-15T20:52:10.971Z,43.60
2018-09-15T20:54:39.848Z,43.10
2018-09-15T20:57:08.779Z,43.70
2018-09-15T20:59:37.649Z,45.10
2018-09-15T21:02:06.538Z,44.70
2018-09-15T21:04:35.406Z,44.40
2018-09-15T21:07:04.439Z,45.50
2018-09-15T21:09:33.304Z,45.70
2018-09-15T21:12:02.252Z,47.30
2018-09-15T21:14:31.134Z,47.60
2018-09-15T21:17:00.107Z,47.90
2018-09-15T21:19:28.978Z,49.80
2018-09-15T21:21:57.902Z,50.30
2018-09-15T21:24:26.897Z,51.20
2018-09-15T21:26:55.807Z,50.40
2018-09-15T21:29:24.715Z,49.90
2018-09-15T21:31:53.606Z,49.60
2018-09-15T21:34:22.509Z,50.30
2018-09-15T21:36:51.474Z,50.60
2018-09-15T21:39:20.422Z,50.20
2018-09-15T21:41:49.344Z,49.60
2018-09-15T21:44:18.251Z,49.30
2018-09-15T21:46:47.171Z,49.90
2018-09-15T21:49:16.089Z,51.00
2018-09-15T21:51:45.019Z,52.50
2018-09-15T21:54:13.898Z,54.20
2018-09-15T21:56:42.801Z,53.80
2018-09-15T21:59:11.774Z,53.90
2018-09-15T22:01:40.666Z,54.20
2018-09-15T22:04:15.074Z,54.30
2018-09-15T22:06:44.162Z,55.10
2018-09-15T22:09:13.566Z,55.30
2018-09-15T22:11:43.202Z,56.50
2018-09-15T22:14:12.430Z,57.40
2018-09-15T22:16:41.836Z,59.80
2018-09-15T22:19:10.720Z,61.50
2018-09-15T22:21:39.618Z,63.10
2018-09-15T22:24:08.537Z,62.60
2018-09-15T22:26:37.411Z,61.20
2018-09-15T22:29:06.778Z,62.10
2018-09-15T22:31:35.678Z,63.50
2018-09-15T22:34:04.633Z,62.40
2018-09-15T22:36:33.466Z,62.10
2018-09-15T22:39:02.390Z,61.50
2018-09-15T22:41:31.270Z,62.20
2018-09-15T22:44:00.150Z,62.90
2018-09-15T22:46:29.059Z,62.30
2018-09-15T22:48:57.935Z,63.50
2018-09-15T22:51:26.822Z,65.00
2018-09-15T22:53:55.694Z,65.20
2018-09-15T22:56:24.574Z,65.80
2018-09-15T22:58:53.463Z,65.40
2018-09-15T23:01:22.379Z,67.50
2018-09-15T23:03:54.854Z,67.70
2018-09-15T23:06:23.894Z,69.50
2018-09-15T23:08:52.775Z,70.80
2018-09-15T23:11:21.687Z,69.90
2018-09-15T23:13:50.604Z,70.70
2018-09-15T23:16:19.482Z,70.50
2018-09-15T23:18:48.382Z,69.50
2018-09-15T23:21:17.270Z,68.80
2018-09-15T23:23:46.163Z,69.40
2018-09-15T23:26:15.096Z,70.30
2018-09-15T23:28:44.039Z,70.80
2018-09-15T23:31:12.957Z,69.70
2018-09-15T23:33:41.838Z,67.10
2018-09-15T23:36:10.777Z,66.90
2018-09-15T23:38:39.860Z,67.40
2018-09-15T23:41:09.506Z,67.90
2018-09-15T23:43:38.993Z,70.10
2018-09-15T23:46:08.328Z,69.80
2018-09-15T23:48:37.314Z,70.40
2018-09-15T23:51:06.254Z,70.10
2018-09-15T23:53:35.231Z,68.00
2018-09-15T23:56:04.113Z,67.00
2018-09-15T23:58:32.987Z,68.30
